Time;durP1;ratioP1;P1;durP2;ratioP2;P2;SDS_P1;SDS_P2;PMS_P1;PMS_P2;Temp;Humidity;BMP_temperature;BMP_pressure;BME280_temperature;BME280_humidity;BME280_pressure;Samples;Min_cycle;Max_cycle;Signal;HPM_P1;HPM_P2
2022/03/16 00:02:03;;;;;;;24.93;12.53;;;;;;;19.39;34.75;102510.56;5113270;28;20490;-71
2022/03/16 00:04:28;;;;;;;24.47;12.50;;;;;;;19.17;35.05;102514.56;5131148;28;20079;-71
2022/03/16 00:06:53;;;;;;;26.20;13.10;;;;;;;19.03;35.34;102507.75;5130431;27;20101;-71
2022/03/16 00:09:19;;;;;;;23.10;11.83;;;;;;;18.54;36.15;102519.19;5112422;28;20023;-69
2022/03/16 00:11:44;;;;;;;28.83;13.63;;;;;;;18.11;36.73;102516.31;5130641;28;20157;-71
2022/03/16 00:14:09;;;;;;;28.10;13.33;;;;;;;18.95;35.37;102512.31;5111710;28;20019;-70
2022/03/16 00:16:35;;;;;;;26.47;13.40;;;;;;;19.15;35.18;102507.50;5131205;28;20091;-71
2022/03/16 00:19:00;;;;;;;25.93;12.37;;;;;;;18.99;35.06;102506.06;5112991;28;20015;-71
2022/03/16 00:21:26;;;;;;;24.50;12.40;;;;;;;19.20;34.91;102511.84;5130634;27;20131;-71
2022/03/16 00:23:51;;;;;;;29.63;13.43;;;;;;;19.13;34.85;102517.25;5112087;28;20104;-71
2022/03/16 00:26:17;;;;;;;26.13;11.57;;;;;;;19.22;34.31;102517.97;5112254;28;20066;-71
2022/03/16 00:28:42;;;;;;;23.93;12.50;;;;;;;19.13;34.59;102519.91;5112438;27;20035;-71
2022/03/16 00:31:07;;;;;;;23.67;11.63;;;;;;;18.87;34.92;102527.44;5130908;28;20385;-71
2022/03/16 00:33:34;;;;;;;25.37;12.87;;;;;;;19.06;34.62;102523.56;5112199;28;20035;-71
2022/03/16 00:35:59;;;;;;;26.23;12.83;;;;;;;19.14;34.20;102516.34;5111357;28;20518;-71
2022/03/16 00:38:24;;;;;;;27.17;12.47;;;;;;;18.90;34.52;102527.41;5113071;28;20076;-70
2022/03/16 00:40:50;;;;;;;25.03;11.37;;;;;;;18.98;34.65;102525.50;5112132;28;20052;-71
2022/03/16 00:43:16;;;;;;;22.97;11.57;;;;;;;19.08;34.50;102527.09;5112152;28;20462;-71
2022/03/16 00:45:41;;;;;;;28.90;12.73;;;;;;;18.79;34.65;102531.09;5112271;28;20027;-71
2022/03/16 00:48:07;;;;;;;25.93;12.87;;;;;;;18.81;34.75;102531.94;5107737;28;20072;-71
2022/03/16 00:50:34;;;;;;;25.87;12.97;;;;;;;18.67;34.71;102525.13;5112953;28;20030;-71
2022/03/16 00:52:59;;;;;;;28.63;13.00;;;;;;;18.65;34.89;102520.72;5112536;28;20034;-71
2022/03/16 00:55:25;;;;;;;28.20;12.57;;;;;;;18.87;34.68;102517.69;5111606;28;20394;-71
2022/03/16 00:57:50;;;;;;;28.40;13.77;;;;;;;18.41;35.26;102514.09;5130734;27;20413;-71
2022/03/16 01:00:15;;;;;;;28.80;14.07;;;;;;;18.74;34.69;102505.56;5134229;27;20039;-71
2022/03/16 01:02:41;;;;;;;26.03;13.03;;;;;;;18.82;34.68;102514.25;5097115;27;20046;-70
2022/03/16 01:05:06;;;;;;;27.97;14.53;;;;;;;18.40;35.22;102514.97;5115410;27;20126;-72
2022/03/16 01:07:32;;;;;;;28.70;13.63;;;;;;;18.27;36.20;102513.41;5134355;27;20042;-71
2022/03/16 01:09:57;;;;;;;29.07;14.73;;;;;;;18.21;36.39;102516.19;5114727;27;20051;-70
2022/03/16 01:12:23;;;;;;;29.87;13.60;;;;;;;18.41;35.37;102507.91;5115864;27;20031;-71
2022/03/16 01:14:49;;;;;;;31.93;13.50;;;;;;;18.13;36.56;102508.34;5115679;27;20478;-71
2022/03/16 01:17:14;;;;;;;28.53;13.37;;;;;;;18.11;35.66;102505.72;5133187;27;20027;-71
2022/03/16 01:19:39;;;;;;;30.57;14.20;;;;;;;18.29;35.62;102498.41;5116476;27;20026;-71
2022/03/16 01:22:06;;;;;;;31.77;14.43;;;;;;;18.32;35.64;102498.34;5115565;27;20537;-71
2022/03/16 01:24:32;;;;;;;35.37;15.27;;;;;;;18.44;35.37;102495.50;5133712;27;20075;-71
2022/03/16 01:26:57;;;;;;;25.80;13.43;;;;;;;18.35;35.11;102490.34;5115158;27;20038;-71
2022/03/16 01:29:26;;;;;;;27.27;14.17;;;;;;;18.02;35.93;102494.41;5133881;27;20454;-70
2022/03/16 01:31:53;;;;;;;29.13;13.67;;;;;;;18.29;35.65;102487.81;5133320;27;20076;-71
2022/03/16 01:34:19;;;;;;;28.17;14.20;;;;;;;18.16;35.87;102491.53;5115135;27;20019;-71
2022/03/16 01:36:45;;;;;;;33.90;14.07;;;;;;;18.38;35.38;102487.66;5115145;27;20046;-71
2022/03/16 01:39:10;;;;;;;27.87;13.57;;;;;;;18.35;35.39;102490.34;5114536;27;20019;-71
2022/03/16 01:41:35;;;;;;;31.37;14.73;;;;;;;18.38;35.08;102490.31;5115274;27;20450;-71
2022/03/16 01:44:01;;;;;;;32.47;14.10;;;;;;;18.41;34.88;102487.63;5114583;27;20045;-71
2022/03/16 01:46:27;;;;;;;34.50;14.20;;;;;;;18.26;35.49;102488.72;5114349;27;20122;-71
2022/03/16 01:48:53;;;;;;;32.67;14.40;;;;;;;18.37;35.30;102491.22;5133670;27;20063;-71
2022/03/16 01:51:19;;;;;;;32.60;15.60;;;;;;;18.22;35.29;102491.47;5114390;27;20038;-70
2022/03/16 01:53:44;;;;;;;28.10;14.27;;;;;;;18.37;35.06;102485.91;5134083;27;20019;-70
2022/03/16 01:56:10;;;;;;;33.27;14.60;;;;;;;18.43;35.09;102493.75;5113445;27;20023;-71
2022/03/16 01:58:35;;;;;;;31.83;14.20;;;;;;;18.09;35.25;102483.72;5113979;27;20035;-71
2022/03/16 02:01:01;;;;;;;31.17;13.90;;;;;;;18.26;35.58;102482.59;5114752;27;20075;-71
2022/03/16 02:03:27;;;;;;;29.53;13.73;;;;;;;17.91;35.98;102476.00;5114956;27;20237;-71
2022/03/16 02:05:52;;;;;;;31.13;14.17;;;;;;;17.89;36.44;102480.47;5114106;27;20038;-70
2022/03/16 02:08:18;;;;;;;29.47;13.80;;;;;;;17.61;36.53;102479.06;5115043;27;20500;-72
2022/03/16 02:10:43;;;;;;;32.57;15.77;;;;;;;18.04;35.81;102482.00;5113700;27;20027;-72
2022/03/16 02:13:10;;;;;;;28.00;13.37;;;;;;;18.31;35.61;102480.72;5093325;28;20134;-72
2022/03/16 02:15:35;;;;;;;31.23;14.60;;;;;;;17.97;35.98;102471.53;5116418;27;20445;-72
2022/03/16 02:18:01;;;;;;;33.07;15.00;;;;;;;18.05;36.01;102471.44;5113986;27;20031;-72
2022/03/16 02:20:29;;;;;;;40.50;15.27;;;;;;;17.75;36.59;102470.94;5132441;27;20034;-70
2022/03/16 02:23:02;;;;;;;33.27;14.80;;;;;;;17.11;37.79;102455.00;5114659;27;20394;-72
2022/03/16 02:25:29;;;;;;;33.20;15.07;;;;;;;17.09;38.07;102453.28;5113654;27;20043;-70
2022/03/16 02:27:56;;;;;;;31.50;15.77;;;;;;;17.07;38.04;102448.00;5113666;27;20019;-70
2022/03/16 02:30:23;;;;;;;34.27;15.67;;;;;;;16.76;38.53;102448.34;5132549;27;20023;-70
2022/03/16 02:32:48;;;;;;;40.20;17.07;;;;;;;16.90;38.26;102450.00;5078028;28;20071;-73
2022/03/16 02:35:14;;;;;;;38.73;18.63;;;;;;;17.17;37.85;102445.28;5118884;27;20481;-72
2022/03/16 02:37:40;;;;;;;40.57;18.20;;;;;;;16.42;40.00;102451.28;5113898;27;20383;-72
2022/03/16 02:40:07;;;;;;;44.20;19.30;;;;;;;16.76;39.04;102450.06;5114153;27;20027;-70
2022/03/16 02:42:33;;;;;;;41.70;18.87;;;;;;;16.71;38.08;102446.63;5113306;27;20478;-70
2022/03/16 02:44:59;;;;;;;43.37;19.73;;;;;;;17.17;38.06;102443.50;5113483;27;20023;-70
2022/03/16 02:47:24;;;;;;;43.00;19.20;;;;;;;16.72;38.86;102449.25;5113449;27;20030;-70
2022/03/16 02:49:51;;;;;;;47.53;20.13;;;;;;;17.43;36.78;102453.75;5113749;27;20026;-70
2022/03/16 02:52:17;;;;;;;39.27;17.70;;;;;;;17.12;37.48;102463.84;5113634;27;20023;-73
2022/03/16 02:54:43;;;;;;;41.23;19.27;;;;;;;16.75;38.57;102454.50;5112826;27;20026;-72
2022/03/16 02:57:09;;;;;;;44.17;19.23;;;;;;;17.26;37.27;102455.75;5131152;27;20035;-72
2022/03/16 02:59:35;;;;;;;52.17;20.63;;;;;;;17.58;36.64;102451.78;5113696;27;20034;-72
2022/03/16 03:02:00;;;;;;;42.00;19.17;;;;;;;17.78;36.26;102460.31;5113681;27;20019;-70
2022/03/16 03:04:26;;;;;;;50.27;21.37;;;;;;;17.34;37.13;102450.34;5113213;27;20019;-70
2022/03/16 03:06:51;;;;;;;51.90;20.97;;;;;;;17.63;36.52;102449.97;5113235;27;20506;-70
2022/03/16 03:09:17;;;;;;;47.37;20.23;;;;;;;17.34;37.20;102440.66;5112565;27;20519;-70
2022/03/16 03:11:42;;;;;;;43.93;21.23;;;;;;;17.49;36.74;102447.53;5132377;27;20023;-71
2022/03/16 03:14:07;;;;;;;47.80;20.27;;;;;;;17.00;37.38;102445.47;5112784;27;20494;-70
2022/03/16 03:16:33;;;;;;;44.57;18.87;;;;;;;17.36;37.26;102438.84;5112733;27;20022;-70
2022/03/16 03:18:58;;;;;;;42.03;19.97;;;;;;;16.53;38.75;102437.13;5113021;27;20447;-70
2022/03/16 03:21:23;;;;;;;44.90;19.77;;;;;;;16.42;38.51;102435.47;5113651;27;20042;-70
2022/03/16 03:23:49;;;;;;;45.53;19.17;;;;;;;16.83;38.49;102425.38;5131190;27;20023;-70
2022/03/16 03:26:14;;;;;;;43.47;18.60;;;;;;;16.57;38.99;102417.75;5130586;27;20428;-70
2022/03/16 03:28:39;;;;;;;43.60;19.83;;;;;;;16.35;39.20;102428.50;5113137;27;20068;-70
2022/03/16 03:31:05;;;;;;;52.73;20.77;;;;;;;17.03;37.53;102409.31;5112142;27;20060;-70
2022/03/16 03:33:30;;;;;;;46.47;20.50;;;;;;;16.70;38.48;102414.06;5113340;27;20019;-70
2022/03/16 03:35:56;;;;;;;41.67;18.80;;;;;;;16.61;38.10;102420.31;5112752;27;20023;-72
2022/03/16 03:38:21;;;;;;;44.33;19.53;;;;;;;16.48;38.86;102417.81;5112383;27;20023;-70
2022/03/16 03:40:47;;;;;;;46.90;19.30;;;;;;;16.96;37.86;102418.22;5113373;27;20030;-70
2022/03/16 03:43:12;;;;;;;47.63;18.73;;;;;;;15.90;39.67;102425.34;5112558;28;20050;-70
2022/03/16 03:45:37;;;;;;;40.00;19.40;;;;;;;16.63;38.21;102417.66;5112473;28;20058;-70
2022/03/16 03:48:03;;;;;;;45.57;19.03;;;;;;;15.44;40.65;102429.97;5130971;27;20027;-70
2022/03/16 03:50:29;;;;;;;40.70;18.40;;;;;;;16.55;38.36;102420.38;5113039;28;20134;-70
2022/03/16 03:52:54;;;;;;;47.23;19.27;;;;;;;17.08;37.33;102425.13;5112444;28;20076;-73
2022/03/16 03:55:19;;;;;;;45.13;19.30;;;;;;;16.23;38.87;102424.19;5130945;28;20067;-70
2022/03/16 03:57:45;;;;;;;43.43;18.80;;;;;;;16.56;38.26;102430.03;5112539;28;20426;-70
2022/03/16 04:00:10;;;;;;;43.60;18.40;;;;;;;16.72;37.90;102430.78;5112321;28;20490;-70
2022/03/16 04:02:36;;;;;;;43.20;18.60;;;;;;;15.83;39.49;102429.78;5131782;28;20027;-70
2022/03/16 04:05:05;;;;;;;39.03;17.23;;;;;;;15.47;40.21;102430.81;5111991;28;20488;-70
2022/03/16 04:07:30;;;;;;;35.17;16.80;;;;;;;14.89;41.31;102430.16;5112593;28;20035;-70
2022/03/16 04:09:56;;;;;;;40.57;16.63;;;;;;;14.60;42.09;102433.69;5130839;28;20094;-70
2022/03/16 04:12:21;;;;;;;41.43;16.43;;;;;;;14.57;42.32;102431.06;5111868;28;20023;-70
2022/03/16 04:14:46;;;;;;;38.57;15.80;;;;;;;13.52;43.89;102434.47;5112826;28;20019;-70
2022/03/16 04:17:12;;;;;;;40.03;16.80;;;;;;;15.18;41.26;102434.44;5111728;28;20122;-70
2022/03/16 04:19:37;;;;;;;33.10;14.97;;;;;;;13.97;43.32;102434.59;5129937;28;20029;-71
2022/03/16 04:22:02;;;;;;;37.83;17.83;;;;;;;15.39;40.99;102422.97;5112972;28;20023;-71
2022/03/16 04:24:28;;;;;;;35.67;16.80;;;;;;;16.02;39.62;102430.53;5112551;27;20044;-70
2022/03/16 04:26:54;;;;;;;38.70;17.23;;;;;;;16.69;38.07;102432.56;5130472;28;20038;-70
2022/03/16 04:29:19;;;;;;;38.27;18.67;;;;;;;16.90;37.47;102431.50;5130757;28;20390;-71
2022/03/16 04:31:45;;;;;;;40.20;17.90;;;;;;;16.90;37.19;102427.09;5112898;28;20035;-70
2022/03/16 04:34:10;;;;;;;37.70;17.43;;;;;;;16.68;37.73;102426.41;5113770;27;20106;-70
2022/03/16 04:36:35;;;;;;;38.90;17.70;;;;;;;16.06;39.03;102431.34;5116435;27;20474;-71
2022/03/16 04:39:01;;;;;;;42.93;17.97;;;;;;;15.59;39.93;102436.03;5134935;27;20094;-70
2022/03/16 04:41:26;;;;;;;42.40;18.43;;;;;;;16.25;38.98;102438.25;5134246;27;20034;-71
2022/03/16 04:43:52;;;;;;;40.57;18.70;;;;;;;16.00;38.90;102434.91;5115948;27;20475;-71
2022/03/16 04:46:17;;;;;;;43.73;18.83;;;;;;;16.53;38.25;102423.94;5134067;27;20031;-70
2022/03/16 04:48:42;;;;;;;40.00;18.93;;;;;;;16.47;38.38;102426.63;5116047;27;20027;-71
2022/03/16 04:51:08;;;;;;;37.53;17.87;;;;;;;16.25;38.59;102422.41;5116125;27;20060;-70
2022/03/16 04:53:33;;;;;;;39.20;17.83;;;;;;;16.35;38.60;102420.56;5116325;27;20030;-70
2022/03/16 04:55:58;;;;;;;38.47;17.43;;;;;;;16.00;38.94;102416.44;5134200;27;20474;-70
2022/03/16 04:58:23;;;;;;;40.17;18.63;;;;;;;15.88;39.82;102421.81;5116014;27;20079;-71
2022/03/16 05:00:49;;;;;;;40.33;19.27;;;;;;;15.69;39.42;102416.66;5116513;27;20027;-70
2022/03/16 05:03:14;;;;;;;40.40;18.80;;;;;;;16.56;38.19;102410.69;5114968;27;20027;-71
2022/03/16 05:05:40;;;;;;;41.70;19.20;;;;;;;15.59;39.88;102414.94;5116030;27;20019;-70
2022/03/16 05:08:05;;;;;;;34.20;17.83;;;;;;;15.30;40.58;102415.97;5114518;27;20030;-70
2022/03/16 05:10:31;;;;;;;46.60;19.73;;;;;;;16.01;39.47;102407.66;5116210;27;20029;-71
2022/03/16 05:12:56;;;;;;;45.90;19.07;;;;;;;15.71;39.72;102409.59;5116397;27;20478;-71
2022/03/16 05:15:22;;;;;;;40.63;18.33;;;;;;;15.73;39.98;102413.09;5133507;27;20429;-70
2022/03/16 05:17:47;;;;;;;43.57;18.83;;;;;;;15.51;39.91;102411.47;5115688;27;20063;-71
2022/03/16 05:20:14;;;;;;;42.60;19.87;;;;;;;15.69;39.83;102408.75;5115050;27;20023;-70
2022/03/16 05:22:50;;;;;;;43.67;20.07;;;;;;;16.58;38.33;102408.91;5115779;27;20027;-71
2022/03/16 05:25:22;;;;;;;40.10;18.90;;;;;;;16.44;38.51;102412.59;5114744;27;20058;-71
2022/03/16 05:27:47;;;;;;;43.30;18.83;;;;;;;16.34;38.49;102420.59;5115856;27;20458;-70
2022/03/16 05:30:14;;;;;;;42.03;16.87;;;;;;;14.57;41.37;102415.28;5133126;27;20033;-71
2022/03/16 05:32:43;;;;;;;39.80;19.87;;;;;;;15.20;41.28;102419.53;5115995;27;20018;-70
2022/03/16 05:35:11;;;;;;;43.97;19.67;;;;;;;15.53;39.80;102409.72;5133187;27;20019;-70
2022/03/16 05:37:37;;;;;;;40.67;19.03;;;;;;;15.43;40.33;102409.75;5082555;28;20024;-71
2022/03/16 05:40:05;;;;;;;51.77;22.20;;;;;;;15.72;39.52;102406.06;5112667;27;20390;-71
2022/03/16 05:42:30;;;;;;;45.07;20.70;;;;;;;15.83;39.66;102407.81;5133831;27;20026;-71
2022/03/16 05:44:55;;;;;;;43.10;20.83;;;;;;;15.80;39.34;102413.09;5131775;27;20020;-70
2022/03/16 05:47:22;;;;;;;44.77;20.17;;;;;;;14.92;42.01;102411.75;5114721;27;20083;-71
2022/03/16 05:49:50;;;;;;;50.60;21.53;;;;;;;15.38;40.32;102406.25;5115368;27;20034;-71
2022/03/16 05:52:17;;;;;;;44.20;19.83;;;;;;;16.19;38.56;102411.03;5114268;27;20061;-71
2022/03/16 05:54:43;;;;;;;44.33;19.93;;;;;;;15.42;39.77;102412.41;5114748;27;20023;-70
2022/03/16 05:57:09;;;;;;;38.80;19.33;;;;;;;15.31;39.97;102414.22;5132730;27;20015;-71
2022/03/16 05:59:34;;;;;;;48.77;21.03;;;;;;;14.73;41.98;102422.31;5115026;27;20023;-71
2022/03/16 06:02:00;;;;;;;42.27;20.40;;;;;;;15.57;39.59;102412.31;5114528;27;20538;-71
2022/03/16 06:04:25;;;;;;;43.67;19.70;;;;;;;16.37;37.97;102421.41;5114239;27;20031;-71
2022/03/16 06:06:53;;;;;;;42.00;20.13;;;;;;;15.37;40.10;102414.19;5133174;27;20030;-71
2022/03/16 06:09:19;;;;;;;36.67;18.53;;;;;;;14.08;42.92;102427.59;5114525;27;20023;-71
2022/03/16 06:11:44;;;;;;;44.53;19.73;;;;;;;14.71;41.19;102418.81;5132661;27;20030;-70
2022/03/16 06:14:09;;;;;;;42.63;19.03;;;;;;;14.23;42.92;102426.72;5114644;27;20026;-71
2022/03/16 06:16:35;;;;;;;38.30;19.40;;;;;;;13.79;43.86;102430.16;5133002;27;20054;-70
2022/03/16 06:19:00;;;;;;;41.03;19.87;;;;;;;15.22;41.34;102420.38;5132081;27;20486;-70
2022/03/16 06:21:25;;;;;;;43.27;19.10;;;;;;;14.74;40.98;102418.81;5093873;28;20032;-71
2022/03/16 06:23:51;;;;;;;46.80;19.37;;;;;;;15.82;40.11;102412.19;5116548;27;20386;-71
2022/03/16 06:26:16;;;;;;;43.33;21.23;;;;;;;15.85;39.46;102416.56;5113684;27;20027;-71
2022/03/16 06:28:42;;;;;;;44.57;19.47;;;;;;;15.09;40.78;102420.44;5133550;27;20471;-71
2022/03/16 06:31:07;;;;;;;42.73;20.90;;;;;;;14.94;41.85;102436.28;5132538;27;20478;-70
2022/03/16 06:33:33;;;;;;;44.67;20.57;;;;;;;14.98;41.55;102432.78;5113930;27;20030;-71
2022/03/16 06:35:59;;;;;;;46.07;18.90;;;;;;;15.55;40.31;102423.75;5113842;27;20033;-71
2022/03/16 06:38:24;;;;;;;42.60;20.67;;;;;;;16.36;38.44;102424.97;5114402;27;20027;-70
2022/03/16 06:40:49;;;;;;;45.30;19.57;;;;;;;16.27;38.67;102422.41;5114096;27;20103;-70
2022/03/16 06:43:15;;;;;;;38.93;19.00;;;;;;;14.20;43.58;102421.44;5132648;27;20038;-70
2022/03/16 06:45:40;;;;;;;45.37;20.70;;;;;;;14.63;42.60;102415.31;5132038;27;20441;-71
2022/03/16 06:48:05;;;;;;;40.50;20.67;;;;;;;14.93;41.92;102408.19;5113096;27;20027;-71
2022/03/16 06:50:31;;;;;;;43.07;20.67;;;;;;;14.84;42.18;102413.53;5113513;27;20019;-71
2022/03/16 06:52:57;;;;;;;41.63;18.50;;;;;;;14.53;43.20;102418.78;5114436;27;20044;-71
2022/03/16 06:55:23;;;;;;;38.63;19.27;;;;;;;15.66;41.16;102405.22;5112640;27;20118;-71
2022/03/16 06:57:49;;;;;;;38.33;17.47;;;;;;;14.87;42.02;102400.34;5113137;27;20058;-70
2022/03/16 07:00:15;;;;;;;43.63;19.47;;;;;;;15.05;42.00;102396.75;5113171;27;20023;-71
2022/03/16 07:03:07;;;;;;;38.03;18.70;;;;;;;16.24;40.02;102398.69;5113853;27;20054;-71
2022/03/16 07:05:34;;;;;;;35.47;18.73;;;;;;;15.39;41.57;102386.94;5103799;27;20042;-70
2022/03/16 07:08:02;;;;;;;38.77;18.80;;;;;;;14.63;43.92;102389.00;5111967;27;20023;-71
2022/03/16 07:10:28;;;;;;;36.47;18.20;;;;;;;15.53;41.89;102391.28;5113049;27;20023;-71
2022/03/16 07:12:54;;;;;;;39.00;17.67;;;;;;;15.13;42.31;102399.38;5132338;27;20033;-71
2022/03/16 07:15:19;;;;;;;36.53;16.97;;;;;;;16.81;39.04;102386.69;5112083;27;20109;-71
2022/03/16 07:17:45;;;;;;;34.17;16.70;;;;;;;16.24;40.37;102388.16;5113970;27;20015;-71
2022/03/16 07:20:11;;;;;;;32.07;16.53;;;;;;;16.91;38.65;102390.97;5131271;27;20464;-71
2022/03/16 07:22:37;;;;;;;35.60;15.57;;;;;;;16.39;39.43;102390.63;5131595;27;20031;-70
2022/03/16 07:25:04;;;;;;;35.20;14.83;;;;;;;15.83;40.96;102394.63;5112388;27;20525;-71
2022/03/16 07:27:29;;;;;;;31.63;15.57;;;;;;;15.30;42.08;102402.78;5130675;27;20440;-71
2022/03/16 07:29:55;;;;;;;29.77;13.83;;;;;;;15.62;41.54;102399.13;5113127;27;20112;-71
2022/03/16 07:32:21;;;;;;;27.30;13.73;;;;;;;14.43;44.15;102402.16;5113287;27;20076;-71
2022/03/16 07:34:46;;;;;;;28.00;14.27;;;;;;;14.18;45.48;102407.44;5112677;27;20023;-71
2022/03/16 07:37:12;;;;;;;25.63;12.73;;;;;;;16.74;40.00;102388.50;5111393;27;20042;-71
2022/03/16 07:39:37;;;;;;;24.30;12.90;;;;;;;16.31;40.46;102395.09;5112820;27;20402;-71
2022/03/16 07:42:03;;;;;;;29.43;14.03;;;;;;;16.33;41.58;102385.41;5113338;27;20030;-70
2022/03/16 07:44:28;;;;;;;25.93;12.43;;;;;;;14.70;43.79;102384.56;5105986;27;20035;-71
2022/03/16 07:46:54;;;;;;;20.93;10.67;;;;;;;14.65;43.79;102396.91;5113578;27;20466;-71
2022/03/16 07:49:19;;;;;;;25.80;11.20;;;;;;;15.99;41.30;102393.63;5112238;27;20469;-71
2022/03/16 07:51:44;;;;;;;24.27;12.50;;;;;;;17.86;37.76;102390.56;5128373;27;20102;-71
2022/03/16 07:54:10;;;;;;;27.87;13.53;;;;;;;17.90;38.54;102385.22;5109203;28;20031;-71
2022/03/16 07:56:35;;;;;;;21.17;11.10;;;;;;;17.27;39.18;102388.78;5111508;28;20118;-71
2022/03/16 07:59:01;;;;;;;20.13;11.37;;;;;;;17.61;37.87;102377.72;5091877;28;20538;-71
2022/03/16 08:01:28;;;;;;;21.70;10.53;;;;;;;17.21;39.31;102383.56;5099689;28;20019;-71
2022/03/16 08:03:53;;;;;;;17.30;9.37;;;;;;;16.55;39.84;102382.56;5111686;28;20023;-71
2022/03/16 08:06:19;;;;;;;19.00;9.63;;;;;;;18.38;37.22;102379.13;5112894;28;20440;-71
2022/03/16 08:08:44;;;;;;;20.23;9.60;;;;;;;18.65;36.38;102385.66;5115213;27;20011;-71
2022/03/16 08:11:10;;;;;;;17.07;9.27;;;;;;;18.10;37.31;102406.06;5111421;28;20053;-71
2022/03/16 08:13:36;;;;;;;16.07;9.33;;;;;;;17.94;37.77;102401.91;5120609;27;20027;-71
2022/03/16 08:16:03;;;;;;;21.63;10.00;;;;;;;18.94;36.44;102396.63;5135121;27;20022;-71
2022/03/16 08:18:29;;;;;;;17.80;10.20;;;;;;;19.99;34.66;102399.63;5116664;27;20031;-71
2022/03/16 08:20:54;;;;;;;18.27;10.10;;;;;;;19.14;35.42;102399.75;5116484;27;20443;-71
2022/03/16 08:23:20;;;;;;;18.30;9.63;;;;;;;18.13;37.52;102421.91;5116726;27;20588;-71
2022/03/16 08:25:45;;;;;;;17.80;9.33;;;;;;;18.90;36.12;102402.91;5115938;27;20043;-71
2022/03/16 08:28:10;;;;;;;18.13;9.00;;;;;;;18.72;35.82;102398.81;5135015;27;20031;-71
2022/03/16 08:30:36;;;;;;;16.97;8.60;;;;;;;19.62;35.07;102403.13;5116308;27;20026;-71
2022/03/16 08:33:02;;;;;;;15.50;8.20;;;;;;;20.33;34.34;102388.13;5115741;27;20035;-72
2022/03/16 08:35:27;;;;;;;14.27;7.73;;;;;;;19.37;35.14;102394.84;5115073;27;20043;-71
2022/03/16 08:37:54;;;;;;;13.43;7.37;;;;;;;19.91;34.16;102401.59;5116251;27;20076;-71
2022/03/16 08:40:20;;;;;;;14.90;7.90;;;;;;;19.52;35.24;102398.94;5133903;27;20055;-71
2022/03/16 08:42:45;;;;;;;13.83;7.30;;;;;;;19.98;34.53;102395.22;5115917;27;20066;-71
2022/03/16 08:45:11;;;;;;;13.40;8.03;;;;;;;18.86;35.93;102393.22;5115728;27;20084;-71
2022/03/16 08:47:37;;;;;;;13.27;6.63;;;;;;;19.50;35.01;102386.56;5134879;27;20502;-71
2022/03/16 08:50:03;;;;;;;18.50;8.53;;;;;;;17.93;37.64;102389.63;5134938;27;20023;-71
2022/03/16 08:52:28;;;;;;;16.17;8.07;;;;;;;18.18;37.49;102389.22;5098899;27;20058;-72
2022/03/16 08:54:54;;;;;;;15.97;8.33;;;;;;;18.03;37.42;102380.63;5115684;27;20058;-71
2022/03/16 08:57:21;;;;;;;13.63;7.03;;;;;;;18.22;37.47;102364.44;5098822;27;20031;-72
2022/03/16 08:59:47;;;;;;;15.13;8.07;;;;;;;17.36;38.34;102362.22;5116942;27;20019;-71
2022/03/16 09:02:12;;;;;;;13.57;8.30;;;;;;;17.81;37.72;102369.47;5114864;27;20390;-72
2022/03/16 09:04:38;;;;;;;13.10;7.50;;;;;;;18.38;37.42;102355.31;5115245;27;20023;-71
2022/03/16 09:07:03;;;;;;;14.80;8.30;;;;;;;17.99;37.71;102351.59;5115064;27;20023;-70
2022/03/16 09:09:29;;;;;;;13.00;7.70;;;;;;;18.05;37.51;102352.38;5134457;27;20086;-72
2022/03/16 09:11:55;;;;;;;13.63;8.07;;;;;;;18.54;36.93;102355.88;5133888;27;20026;-72
2022/03/16 09:14:20;;;;;;;15.07;7.80;;;;;;;17.62;37.81;102369.75;5133930;27;20064;-72
2022/03/16 09:16:47;;;;;;;14.33;7.37;;;;;;;16.58;40.07;102372.84;5115428;27;20071;-72
2022/03/16 09:19:20;;;;;;;13.03;7.77;;;;;;;19.58;35.60;102359.88;5134011;27;20023;-72
2022/03/16 09:21:50;;;;;;;13.93;7.13;;;;;;;18.70;35.82;102356.47;5114264;27;20110;-72
2022/03/16 09:24:15;;;;;;;12.30;6.83;;;;;;;20.21;33.71;102345.97;5114882;27;20047;-72
2022/03/16 09:26:42;;;;;;;12.67;6.67;;;;;;;20.70;33.10;102349.94;5134801;27;20034;-72
2022/03/16 09:29:08;;;;;;;11.03;6.27;;;;;;;20.74;32.92;102346.28;5114223;27;20453;-72
2022/03/16 09:31:36;;;;;;;11.23;6.43;;;;;;;20.31;33.26;102358.09;5133653;27;20062;-72
2022/03/16 09:34:05;;;;;;;10.97;6.60;;;;;;;18.70;35.71;102356.47;5095557;28;20386;-71
2022/03/16 09:36:32;;;;;;;13.30;6.72;;;;;;;20.99;31.48;102351.78;5109984;27;20087;-71
2022/03/16 09:38:58;;;;;;;16.50;7.40;;;;;;;19.98;34.20;102360.72;5134244;27;20474;-72
2022/03/16 09:41:24;;;;;;;12.32;7.55;;;;;;;21.93;30.34;102350.59;5133234;27;20091;-72
2022/03/16 09:43:50;;;;;;;13.15;6.97;;;;;;;23.30;28.96;102341.22;5114936;27;20027;-72
2022/03/16 09:46:21;;;;;;;14.52;6.93;;;;;;;23.76;28.99;102344.66;5114528;27;20019;-72
2022/03/16 09:48:46;;;;;;;11.43;6.53;;;;;;;22.72;29.20;102350.50;5115955;27;20050;-72
2022/03/16 09:51:11;;;;;;;11.45;6.75;;;;;;;21.91;30.67;102351.56;5113234;27;20061;-72
2022/03/16 09:53:38;;;;;;;13.07;7.20;;;;;;;22.04;30.56;102347.56;5115710;27;20026;-72
2022/03/16 09:56:05;;;;;;;10.73;6.20;;;;;;;21.39;30.72;102344.38;5094713;28;20020;-72
2022/03/16 09:58:30;;;;;;;10.30;6.55;;;;;;;23.59;27.61;102331.16;5094381;28;20019;-72
2022/03/16 10:00:56;;;;;;;9.93;6.28;;;;;;;22.40;30.00;102339.25;5096031;28;20103;-72
2022/03/16 10:03:28;;;;;;;10.77;6.80;;;;;;;22.93;29.09;102342.63;5093345;27;20023;-72
2022/03/16 10:05:55;;;;;;;13.70;7.47;;;;;;;22.95;29.06;102343.44;5100849;27;20128;-71
2022/03/16 10:08:32;;;;;;;9.30;5.60;;;;;;;22.05;30.58;102344.00;5098432;27;20439;-71
2022/03/16 10:13:57;;;;;;;12.02;7.03;;;;;;;22.95;29.31;102340.78;5108957;27;20042;-72
2022/03/16 10:16:23;;;;;;;11.30;7.50;;;;;;;21.94;30.13;102330.16;5113095;27;20045;-73
2022/03/16 10:18:56;;;;;;;10.07;6.30;;;;;;;21.92;30.90;102332.03;5112844;27;20023;-71
2022/03/16 10:21:23;;;;;;;9.88;5.82;;;;;;;21.35;31.70;102343.56;5132363;27;20505;-71
2022/03/16 10:23:49;;;;;;;13.10;7.03;;;;;;;22.47;30.04;102331.91;5115186;27;20087;-72
2022/03/16 10:26:19;;;;;;;10.93;6.90;;;;;;;23.15;29.22;102332.91;5113492;27;20019;-72
2022/03/16 10:28:48;;;;;;;11.48;7.38;;;;;;;22.87;30.00;102323.28;5113052;27;20104;-72
2022/03/16 10:31:16;;;;;;;12.52;7.53;;;;;;;24.38;27.85;102329.53;5112905;27;20027;-72
2022/03/16 10:33:55;;;;;;;10.25;6.45;;;;;;;23.93;27.89;102319.09;5113819;27;20026;-72
2022/03/16 10:36:22;;;;;;;12.50;6.93;;;;;;;24.22;27.67;102315.13;5114384;27;20015;-72
2022/03/16 10:38:58;;;;;;;12.30;7.35;;;;;;;24.32;28.21;102316.47;5113455;27;20462;-72
2022/03/16 10:47:09;;;;;;;11.55;7.60;;;;;;;24.19;27.55;102310.81;5132376;27;20378;-72
2022/03/16 10:49:34;;;;;;;12.50;7.03;;;;;;;25.20;26.83;102315.09;5131100;27;20485;-71
2022/03/16 10:52:06;;;;;;;11.27;7.32;;;;;;;25.16;26.65;102308.16;5131496;27;20063;-71
2022/03/16 10:54:34;;;;;;;12.07;7.38;;;;;;;24.03;28.43;102309.75;5112272;27;20022;-72
2022/03/16 10:57:02;;;;;;;11.65;6.97;;;;;;;23.76;29.09;102311.78;5111892;27;20023;-72
2022/03/16 10:59:29;;;;;;;11.15;6.93;;;;;;;24.88;26.90;102309.47;5114014;27;20023;-71
2022/03/16 11:02:14;;;;;;;12.77;7.88;;;;;;;23.49;28.70;102303.97;5112857;27;20490;-72
2022/03/16 11:04:41;;;;;;;12.32;7.55;;;;;;;22.63;29.92;102308.22;5113251;27;20482;-72
2022/03/16 11:07:07;;;;;;;10.93;6.88;;;;;;;23.54;28.21;102302.84;5112484;27;20154;-71
2022/03/16 11:09:35;;;;;;;11.95;7.13;;;;;;;23.59;28.64;102294.69;5113458;27;20493;-72
2022/03/16 11:14:50;;;;;;;11.95;7.72;;;;;;;23.50;29.77;102298.56;5131487;27;20092;-72
2022/03/16 11:17:17;;;;;;;12.15;7.32;;;;;;;23.20;30.11;102306.94;5131937;27;20383;-72
2022/03/16 11:19:48;;;;;;;13.05;7.60;;;;;;;23.71;29.29;102319.97;5113894;27;20019;-72